CHINCOTEAGUE BAY INLET NEAR CHIN VA US USGS current weather conditions

sailwx.info

Wind at 13 knots

Last reported at 2020-Jan-25 13:00 UTC.
Time now 2020-Jan-25 14:31 UTC

Location: N 37°54' W 075°24'.
View on Google Maps.

See reports from other nearby stations

  
Tides and Currents Weather Stations Pressure Air Temp Water Temp Dewpoint Dewpoint Depression Visibility Wind Speed Wind Dir Waves Ship Positions
date/time (UTC)wind fromknots sea level pressurealtimeterstation pressurevisibilityair tempwater tempwave heightnotes
2020-Jan-25 13:00
2020-Jan-25 08:00 096 13 gusting 12
2020-Jan-25 07:00 093 13 gusting 12
2020-Jan-25 06:00 099 10 gusting 10
2020-Jan-25 05:00 092 13 gusting 12
2020-Jan-25 04:00 086 12 gusting 12
2020-Jan-25 03:00 084 12 gusting 11
2020-Jan-25 02:00 085 12 gusting 11
2020-Jan-25 01:00 085 11 gusting 10
2020-Jan-25 00:00 086 11 gusting 11
2020-Jan-24 23:00 087 12 gusting 12
2020-Jan-24 22:00 081 10 gusting 10
2020-Jan-24 20:00 078 12 gusting 12
2020-Jan-24 19:00 070 12 gusting 12
2020-Jan-24 18:00 067 13 gusting 13
2020-Jan-24 17:00 053 7 gusting 7
2020-Jan-24 16:00 027 5 gusting 5
2020-Jan-24 15:00 022 6 gusting 6
2020-Jan-24 14:00 003 4 gusting 4
2020-Jan-24 13:00 008 3 gusting 3
2020-Jan-24 12:00 032 5 gusting 5
2020-Jan-24 11:00 037 7 gusting 7
2020-Jan-24 10:00 032 4 gusting 4
2020-Jan-24 09:00 037 9 gusting 9
2020-Jan-24 08:00 035 7 gusting 6
2020-Jan-24 07:00 040 5 gusting 5
2020-Jan-24 06:00 021 7 gusting 7
2020-Jan-24 05:00 025 7 gusting 6
2020-Jan-24 04:00 357 4 gusting 4
2020-Jan-24 03:00 025 5 gusting 5
2020-Jan-24 02:00 038 5 gusting 5
2020-Jan-24 01:00 029 5 gusting 5
2020-Jan-24 00:00 024 4 gusting 4
2020-Jan-23 23:00 022 5 gusting 5
2020-Jan-23 22:00 040 6 gusting 6
2020-Jan-23 21:00 034 5 gusting 5
2020-Jan-23 20:00 032 5 gusting 5
2020-Jan-23 19:00 030 7 gusting 7
2020-Jan-23 18:00 028 8 gusting 8
2020-Jan-23 17:00 023 6 gusting 6
2020-Jan-23 16:00 028 8 gusting 8
2020-Jan-23 15:00 029 7 gusting 7
2020-Jan-23 14:00 025 7 gusting 7